createdAt,value
2022-10-23T00:01:39.498Z,85.80
2022-10-23T00:04:08.933Z,85.70
2022-10-23T00:06:37.124Z,85.70
2022-10-23T00:09:06.285Z,85.70
2022-10-23T00:11:34.878Z,85.70
2022-10-23T00:14:03.766Z,85.70
2022-10-23T00:16:33.214Z,85.70
2022-10-23T00:19:01.304Z,85.80
2022-10-23T00:21:29.482Z,85.80
2022-10-23T00:23:57.539Z,85.70
2022-10-23T00:26:25.728Z,85.80
2022-10-23T00:28:54.533Z,85.80
2022-10-23T00:31:25.650Z,85.70
2022-10-23T00:33:55.185Z,85.80
2022-10-23T00:36:23.432Z,85.80
2022-10-23T00:38:51.634Z,85.80
2022-10-23T00:41:21.333Z,85.80
2022-10-23T00:44:10.415Z,85.80
2022-10-23T00:46:39.013Z,85.80
2022-10-23T00:49:08.724Z,85.80
2022-10-23T00:51:39.288Z,85.80
2022-10-23T00:54:24.294Z,85.80
2022-10-23T00:56:53.183Z,85.90
2022-10-23T00:59:21.290Z,85.80
2022-10-23T01:01:49.513Z,85.80
2022-10-23T01:04:19.036Z,85.80
2022-10-23T01:06:51.970Z,85.70
2022-10-23T01:09:31.677Z,85.80
2022-10-23T01:12:04.791Z,85.80
2022-10-23T01:14:35.459Z,85.70
2022-10-23T01:17:10.742Z,85.70
2022-10-23T01:19:50.845Z,85.80
2022-10-23T01:22:29.240Z,85.70
2022-10-23T01:24:58.867Z,85.70
2022-10-23T01:27:28.640Z,85.70
2022-10-23T01:30:17.071Z,85.80
2022-10-23T01:32:52.335Z,85.80
2022-10-23T01:35:21.753Z,85.90
2022-10-23T01:37:52.790Z,85.80
2022-10-23T01:40:23.091Z,85.80
2022-10-23T01:42:54.296Z,85.70
2022-10-23T01:45:25.118Z,85.80
2022-10-23T01:47:53.217Z,85.80
2022-10-23T01:50:21.278Z,85.80
2022-10-23T01:52:56.769Z,85.80
2022-10-23T01:55:25.044Z,85.80
2022-10-23T01:57:54.502Z,85.80
2022-10-23T02:00:23.493Z,85.80
2022-10-23T02:02:51.652Z,85.80
2022-10-23T02:05:20.662Z,85.80
2022-10-23T02:07:48.711Z,85.70
2022-10-23T02:10:16.903Z,85.70
2022-10-23T02:12:49.930Z,85.90
2022-10-23T02:15:22.535Z,85.70
2022-10-23T02:17:52.795Z,85.70
2022-10-23T02:20:23.342Z,85.70
2022-10-23T02:22:56.681Z,85.70
2022-10-23T02:25:27.719Z,85.80
2022-10-23T02:27:56.416Z,85.70
2022-10-23T02:30:25.846Z,85.70
2022-10-23T02:32:54.979Z,85.70
2022-10-23T02:35:24.066Z,85.70
2022-10-23T02:37:55.629Z,85.80
2022-10-23T02:40:24.336Z,85.70
2022-10-23T02:42:54.502Z,85.80
2022-10-23T02:45:31.596Z,85.70
2022-10-23T02:48:02.670Z,85.80
2022-10-23T02:50:34.236Z,85.90
2022-10-23T02:53:06.715Z,85.80
2022-10-23T02:55:41.880Z,85.80
2022-10-23T02:58:11.580Z,85.80
2022-10-23T03:00:41.808Z,86.10
2022-10-23T03:03:11.582Z,85.70
2022-10-23T03:05:40.690Z,85.70
2022-10-23T03:08:09.916Z,85.80
2022-10-23T03:10:38.120Z,85.80
2022-10-23T03:13:06.255Z,85.80
2022-10-23T03:15:34.363Z,85.80
2022-10-23T03:18:03.847Z,85.80
2022-10-23T03:20:45.815Z,85.80
2022-10-23T03:23:14.638Z,85.80
2022-10-23T03:25:42.717Z,85.80
2022-10-23T03:28:10.793Z,85.80
2022-10-23T03:30:38.851Z,85.90
2022-10-23T03:33:08.286Z,85.90
2022-10-23T03:35:36.389Z,85.80
2022-10-23T03:38:04.536Z,85.80
2022-10-23T03:40:32.814Z,85.80
2022-10-23T03:43:00.923Z,85.90
2022-10-23T03:45:29.028Z,85.90
2022-10-23T03:47:57.092Z,85.80
2022-10-23T03:50:26.502Z,85.80
2022-10-23T03:52:57.567Z,85.90
2022-10-23T03:55:27.161Z,85.80
2022-10-23T03:57:55.399Z,85.80
2022-10-23T04:00:23.692Z,85.80
2022-10-23T04:02:51.801Z,85.90
2022-10-23T04:05:19.948Z,85.80
2022-10-23T04:07:49.371Z,85.80
2022-10-23T04:10:25.504Z,85.90
2022-10-23T04:12:56.705Z,85.90
2022-10-23T04:18:10.131Z,86.00
2022-10-23T04:20:38.230Z,85.90
2022-10-23T04:23:07.674Z,86.10
2022-10-23T04:25:35.845Z,85.90
2022-10-23T04:28:03.941Z,86.00
2022-10-23T04:30:32.005Z,86.00
2022-10-23T04:33:00.041Z,86.10
2022-10-23T04:35:28.188Z,86.00
2022-10-23T04:37:56.270Z,86.10
2022-10-23T04:40:25.749Z,86.00
2022-10-23T04:42:53.836Z,86.10
2022-10-23T04:45:22.283Z,86.10
2022-10-23T04:47:50.395Z,86.10
2022-10-23T04:50:18.493Z,86.10
2022-10-23T04:52:46.539Z,86.10
2022-10-23T04:55:14.609Z,86.20
2022-10-23T04:57:44.051Z,86.10
2022-10-23T05:00:14.309Z,86.10
2022-10-23T05:02:42.608Z,86.10
2022-10-23T05:05:11.045Z,86.10
2022-10-23T05:07:40.347Z,86.20
2022-10-23T05:10:09.598Z,86.10
2022-10-23T05:12:37.668Z,86.20
2022-10-23T05:15:08.417Z,86.20
2022-10-23T05:17:37.525Z,86.20
2022-10-23T05:20:08.716Z,86.20
2022-10-23T05:22:37.758Z,86.20
2022-10-23T05:25:06.408Z,86.20
2022-10-23T05:27:40.579Z,86.20
2022-10-23T05:30:11.548Z,86.10
2022-10-23T05:32:39.915Z,86.20
2022-10-23T05:35:09.064Z,86.30
2022-10-23T05:37:38.501Z,86.10
2022-10-23T05:40:07.576Z,86.20
2022-10-23T05:42:38.237Z,86.10
2022-10-23T05:45:11.644Z,86.10
2022-10-23T05:47:39.901Z,86.20
2022-10-23T05:50:08.499Z,86.20
2022-10-23T05:52:36.559Z,86.20
2022-10-23T05:55:04.812Z,86.20
2022-10-23T05:57:33.855Z,86.20
2022-10-23T06:00:02.365Z,86.30
2022-10-23T06:02:31.880Z,86.30
2022-10-23T06:05:00.005Z,86.30
2022-10-23T06:07:31.146Z,86.30
2022-10-23T06:10:04.906Z,86.20
2022-10-23T06:12:33.368Z,86.20
2022-10-23T06:15:01.676Z,86.30
2022-10-23T06:17:34.326Z,86.30
2022-10-23T06:20:02.632Z,86.30
2022-10-23T06:22:30.793Z,86.30
2022-10-23T06:24:58.839Z,86.30
2022-10-23T06:27:26.908Z,86.30
2022-10-23T06:29:54.986Z,86.30
2022-10-23T06:32:23.156Z,86.30
2022-10-23T06:34:52.741Z,86.40
2022-10-23T06:37:20.767Z,86.30
2022-10-23T06:39:48.820Z,86.30
2022-10-23T06:42:16.850Z,86.30
2022-10-23T06:44:44.907Z,86.40
2022-10-23T06:47:14.426Z,86.30
2022-10-23T06:49:42.701Z,86.30
2022-10-23T06:52:23.143Z,86.40
2022-10-23T06:55:00.172Z,86.30
2022-10-23T06:57:28.194Z,86.30
2022-10-23T06:59:56.303Z,86.40
2022-10-23T07:02:24.508Z,86.30
2022-10-23T07:04:52.572Z,86.30
2022-10-23T07:07:22.004Z,86.30
2022-10-23T07:09:50.085Z,86.30
2022-10-23T07:12:29.966Z,86.30
2022-10-23T07:15:03.889Z,86.40
2022-10-23T07:20:21.641Z,86.40
2022-10-23T07:22:54.445Z,86.40
2022-10-23T07:25:23.108Z,86.40
2022-10-23T07:27:55.417Z,86.40
2022-10-23T07:30:24.323Z,86.50
2022-10-23T07:32:52.381Z,86.40
2022-10-23T07:35:20.565Z,86.50
2022-10-23T07:37:48.700Z,86.40
2022-10-23T07:40:18.880Z,86.50
2022-10-23T07:42:46.973Z,86.50
2022-10-23T07:45:15.244Z,86.50
2022-10-23T07:47:43.539Z,86.40
2022-10-23T07:50:11.880Z,86.40
2022-10-23T07:52:39.967Z,86.50
2022-10-23T07:55:08.611Z,86.40
2022-10-23T07:57:39.215Z,86.40
2022-10-23T08:00:08.544Z,86.60
2022-10-23T08:02:45.816Z,86.50
2022-10-23T08:05:13.987Z,86.40
2022-10-23T08:07:42.137Z,86.40
2022-10-23T08:10:10.546Z,86.30
2022-10-23T08:12:40.314Z,86.30
2022-10-23T08:15:09.551Z,86.30
2022-10-23T08:17:39.231Z,86.30
2022-10-23T08:20:08.795Z,86.40
2022-10-23T08:22:39.412Z,86.30
2022-10-23T08:25:16.658Z,86.30
2022-10-23T08:27:46.331Z,86.30
2022-10-23T08:30:14.674Z,86.30
2022-10-23T08:32:42.768Z,86.30
2022-10-23T08:35:11.265Z,86.30
2022-10-23T08:37:39.335Z,86.30
2022-10-23T08:40:08.523Z,86.20
2022-10-23T08:42:39.450Z,86.10
2022-10-23T08:45:13.366Z,86.00
2022-10-23T08:47:43.600Z,85.90
2022-10-23T08:50:15.430Z,85.90
2022-10-23T08:53:01.969Z,85.80
2022-10-23T08:55:32.418Z,85.90
2022-10-23T08:58:02.141Z,85.90
2022-10-23T09:00:31.688Z,85.80
2022-10-23T09:03:02.269Z,85.90
2022-10-23T09:05:32.996Z,86.00
2022-10-23T09:08:08.237Z,86.10
2022-10-23T09:10:46.016Z,86.10
2022-10-23T09:13:44.123Z,86.00
2022-10-23T09:19:45.074Z,86.20
2022-10-23T09:22:14.180Z,86.20
2022-10-23T09:24:51.562Z,86.30
2022-10-23T09:27:21.932Z,86.30
2022-10-23T09:29:51.232Z,86.40
2022-10-23T09:32:19.312Z,86.20
2022-10-23T09:34:55.656Z,86.20
2022-10-23T09:37:26.619Z,86.30
2022-10-23T09:40:19.759Z,86.20
2022-10-23T09:43:13.944Z,86.20
2022-10-23T09:45:42.709Z,86.40
2022-10-23T09:48:13.231Z,86.30
2022-10-23T09:50:50.540Z,86.20
2022-10-23T09:53:20.156Z,86.30
2022-10-23T09:55:53.532Z,86.40
2022-10-23T09:58:22.977Z,86.50
2022-10-23T10:00:55.416Z,86.50
2022-10-23T10:03:24.548Z,86.60
2022-10-23T10:05:58.511Z,86.60
2022-10-23T10:08:33.524Z,86.60
2022-10-23T10:11:03.607Z,86.60
2022-10-23T10:13:58.939Z,86.60
2022-10-23T10:16:33.868Z,86.70
2022-10-23T10:19:05.144Z,86.70
2022-10-23T10:21:37.436Z,86.70
2022-10-23T10:24:08.681Z,86.70
2022-10-23T10:26:39.665Z,86.70
2022-10-23T10:29:15.198Z,86.70
2022-10-23T10:31:52.299Z,86.70
2022-10-23T10:34:24.668Z,86.70
2022-10-23T10:36:55.793Z,86.70
2022-10-23T10:39:33.244Z,86.70
2022-10-23T10:42:08.941Z,86.70
2022-10-23T10:44:51.141Z,86.70
2022-10-23T10:47:22.797Z,86.70
2022-10-23T10:50:00.659Z,86.70
2022-10-23T10:52:33.760Z,86.70
2022-10-23T10:55:04.703Z,86.70
2022-10-23T10:57:47.626Z,86.70
2022-10-23T11:00:17.359Z,86.70
2022-10-23T11:02:47.164Z,86.70
2022-10-23T11:05:28.678Z,86.70
2022-10-23T11:08:00.235Z,86.70
2022-10-23T11:10:28.432Z,86.70
2022-10-23T11:12:56.898Z,86.70
2022-10-23T11:15:27.211Z,86.70
2022-10-23T11:17:58.055Z,86.70
2022-10-23T11:20:53.850Z,86.70
2022-10-23T11:23:51.165Z,86.70
2022-10-23T11:26:28.163Z,86.70
2022-10-23T11:29:34.420Z,86.70
2022-10-23T11:32:11.227Z,86.70
2022-10-23T11:34:58.457Z,86.70
2022-10-23T11:37:26.909Z,86.70
2022-10-23T11:40:02.635Z,86.70
2022-10-23T11:42:35.142Z,86.70
2022-10-23T11:45:03.172Z,86.70
2022-10-23T11:47:38.953Z,86.70
2022-10-23T11:50:24.662Z,86.70
2022-10-23T11:53:14.586Z,86.70
2022-10-23T11:56:00.215Z,86.70
2022-10-23T11:58:50.153Z,86.80
2022-10-23T12:01:35.189Z,86.70
2022-10-23T12:04:05.294Z,86.80
2022-10-23T12:06:34.305Z,86.70
2022-10-23T12:09:05.474Z,86.80
2022-10-23T12:11:45.771Z,86.80
2022-10-23T12:14:31.166Z,86.80
2022-10-23T12:17:16.669Z,86.80
2022-10-23T12:19:48.818Z,86.70
2022-10-23T12:22:16.967Z,86.70
2022-10-23T12:24:53.808Z,86.70
2022-10-23T12:27:26.631Z,86.80
2022-10-23T12:30:05.514Z,86.80
2022-10-23T12:32:47.890Z,86.70
2022-10-23T12:35:54.813Z,86.80
2022-10-23T12:38:23.652Z,86.70
2022-10-23T12:40:53.116Z,86.70
2022-10-23T12:43:27.988Z,86.70
2022-10-23T12:45:56.153Z,86.70
2022-10-23T12:48:25.396Z,86.70
2022-10-23T12:50:54.985Z,86.70
2022-10-23T12:53:24.179Z,86.70
2022-10-23T12:55:55.023Z,86.70
2022-10-23T12:58:23.656Z,86.70
2022-10-23T13:00:53.763Z,86.70
2022-10-23T13:03:22.527Z,86.70
2022-10-23T13:05:51.658Z,86.70
2022-10-23T13:08:20.104Z,86.70
2022-10-23T13:10:48.346Z,86.70
2022-10-23T13:13:26.185Z,86.70
2022-10-23T13:15:55.794Z,86.70
2022-10-23T13:18:23.991Z,86.70
2022-10-23T13:20:59.562Z,86.70
2022-10-23T13:23:31.640Z,86.80
2022-10-23T13:26:00.099Z,86.80
2022-10-23T13:28:28.861Z,86.70
2022-10-23T13:31:23.017Z,86.70
2022-10-23T13:33:52.701Z,86.70
2022-10-23T13:36:24.972Z,86.70
2022-10-23T13:39:03.909Z,86.70
2022-10-23T13:41:36.862Z,86.70
2022-10-23T13:44:04.950Z,86.70
2022-10-23T13:46:34.406Z,86.70
2022-10-23T13:49:02.524Z,86.70
2022-10-23T13:51:31.469Z,86.60
2022-10-23T13:53:59.549Z,86.60
2022-10-23T13:56:28.776Z,86.60
2022-10-23T13:58:56.891Z,86.60
2022-10-23T14:01:26.344Z,86.60
2022-10-23T14:03:56.301Z,86.60
2022-10-23T14:06:24.452Z,86.60
2022-10-23T14:08:52.560Z,86.60
2022-10-23T14:11:21.040Z,86.60
2022-10-23T14:13:49.258Z,86.60
2022-10-23T14:16:18.495Z,86.60
2022-10-23T14:18:46.616Z,86.60
2022-10-23T14:21:17.393Z,86.60
2022-10-23T14:23:45.502Z,86.60
2022-10-23T14:26:14.210Z,86.60
2022-10-23T14:28:42.332Z,86.60
2022-10-23T14:31:14.227Z,86.60
2022-10-23T14:33:42.598Z,86.50
2022-10-23T14:36:11.204Z,86.50
2022-10-23T14:38:40.717Z,86.60
2022-10-23T14:41:12.572Z,86.60
2022-10-23T14:43:40.634Z,86.60
2022-10-23T14:46:13.306Z,86.50
2022-10-23T14:48:45.404Z,86.60
2022-10-23T14:51:19.663Z,86.60
2022-10-23T14:53:49.372Z,86.60
2022-10-23T14:56:17.513Z,86.50
2022-10-23T14:58:45.616Z,86.50
2022-10-23T15:01:13.925Z,86.50
2022-10-23T15:03:42.876Z,86.50
2022-10-23T15:06:15.983Z,86.50
2022-10-23T15:08:48.773Z,86.50
2022-10-23T15:11:23.635Z,86.50
2022-10-23T15:13:51.736Z,86.60
2022-10-23T15:16:19.833Z,86.50
2022-10-23T15:18:47.912Z,86.60
2022-10-23T15:21:16.216Z,86.50
2022-10-23T15:23:44.943Z,86.60
2022-10-23T15:26:13.861Z,86.50
2022-10-23T15:28:43.306Z,86.60
2022-10-23T15:31:32.053Z,86.50
2022-10-23T15:34:02.646Z,86.50
2022-10-23T15:36:36.538Z,86.60
2022-10-23T15:39:05.793Z,86.60
2022-10-23T15:41:35.010Z,86.50
2022-10-23T15:44:04.700Z,86.50
2022-10-23T15:46:32.860Z,86.50
2022-10-23T15:49:00.961Z,86.50
2022-10-23T15:51:29.314Z,86.50
2022-10-23T15:53:57.859Z,86.50
2022-10-23T15:56:26.080Z,86.50
2022-10-23T15:58:57.226Z,86.50
2022-10-23T16:01:29.926Z,86.50
2022-10-23T16:03:58.232Z,86.50
2022-10-23T16:06:26.336Z,86.50
2022-10-23T16:11:28.533Z,86.60
2022-10-23T16:13:56.975Z,86.60
2022-10-23T16:16:25.186Z,86.60
2022-10-23T16:18:54.644Z,86.50
2022-10-23T16:21:23.456Z,86.60
2022-10-23T16:23:51.859Z,86.50
2022-10-23T16:26:19.949Z,86.60
2022-10-23T16:28:48.129Z,86.60
2022-10-23T16:31:19.972Z,86.50
2022-10-23T16:33:48.773Z,86.60
2022-10-23T16:36:18.409Z,86.60
2022-10-23T16:38:46.475Z,86.60
2022-10-23T16:41:14.512Z,86.60
2022-10-23T16:43:42.592Z,86.50
2022-10-23T16:46:14.033Z,86.60
2022-10-23T16:48:42.238Z,86.60
2022-10-23T16:51:10.815Z,86.60
2022-10-23T16:53:40.290Z,86.50
2022-10-23T16:56:09.925Z,86.60
2022-10-23T16:58:40.946Z,86.50
2022-10-23T17:01:10.235Z,86.60
2022-10-23T17:03:42.434Z,86.60
2022-10-23T17:06:14.752Z,86.50
2022-10-23T17:08:44.258Z,86.60
2022-10-23T17:11:13.143Z,86.60
2022-10-23T17:13:42.613Z,86.60
2022-10-23T17:16:11.820Z,86.60
2022-10-23T17:18:42.949Z,86.60
2022-10-23T17:21:12.175Z,86.60
2022-10-23T17:23:40.285Z,86.70
2022-10-23T17:26:09.936Z,86.60
2022-10-23T17:28:40.584Z,86.60
2022-10-23T17:31:17.036Z,86.60
2022-10-23T17:33:45.153Z,86.60
2022-10-23T17:36:13.635Z,86.60
2022-10-23T17:38:41.796Z,86.60
2022-10-23T17:41:37.798Z,86.60
2022-10-23T17:44:06.073Z,86.70
2022-10-23T17:46:34.159Z,86.70
2022-10-23T17:51:31.811Z,86.60
2022-10-23T17:54:02.702Z,86.60
2022-10-23T17:56:32.915Z,86.60
2022-10-23T17:59:01.998Z,86.60
2022-10-23T18:01:30.701Z,86.60
2022-10-23T18:04:06.581Z,86.60
2022-10-23T18:06:35.542Z,86.70
2022-10-23T18:09:07.253Z,86.60
2022-10-23T18:11:37.616Z,86.70
2022-10-23T18:14:06.093Z,86.60
2022-10-23T18:16:34.256Z,86.50
2022-10-23T18:19:02.538Z,86.60
2022-10-23T18:21:32.755Z,86.60
2022-10-23T18:24:01.036Z,86.60
2022-10-23T18:26:31.074Z,86.60
2022-10-23T18:29:00.776Z,86.60
2022-10-23T18:31:30.317Z,86.60
2022-10-23T18:33:58.965Z,86.60
2022-10-23T18:36:28.154Z,86.60
2022-10-23T18:38:56.351Z,86.60
2022-10-23T18:41:24.640Z,86.60
2022-10-23T18:43:52.860Z,86.60
2022-10-23T18:46:22.390Z,86.60
2022-10-23T18:48:51.694Z,86.60
2022-10-23T18:51:20.752Z,86.60
2022-10-23T18:53:49.090Z,86.60
2022-10-23T18:56:30.737Z,86.60
2022-10-23T18:59:00.429Z,86.60
2022-10-23T19:01:30.191Z,86.60
2022-10-23T19:03:59.529Z,86.60
2022-10-23T19:06:27.786Z,86.60
2022-10-23T19:08:55.859Z,86.60
2022-10-23T19:11:24.669Z,86.70
2022-10-23T19:13:52.798Z,86.70
2022-10-23T19:16:22.633Z,86.60
2022-10-23T19:18:53.074Z,86.60
2022-10-23T19:21:21.643Z,86.60
2022-10-23T19:23:49.672Z,86.60
2022-10-23T19:26:17.741Z,86.60
2022-10-23T19:28:47.026Z,86.60
2022-10-23T19:31:15.141Z,86.70
2022-10-23T19:33:43.629Z,86.60
2022-10-23T19:36:14.420Z,86.50
2022-10-23T19:38:42.803Z,86.70
2022-10-23T19:41:11.040Z,86.70
2022-10-23T19:43:39.090Z,86.60
2022-10-23T19:46:11.001Z,86.70
2022-10-23T19:48:42.517Z,86.70
2022-10-23T19:51:13.002Z,86.70
2022-10-23T19:53:42.687Z,86.70
2022-10-23T19:56:12.145Z,86.60
2022-10-23T19:58:40.299Z,86.60
2022-10-23T20:01:09.945Z,86.60
2022-10-23T20:03:38.598Z,86.80
2022-10-23T20:06:09.823Z,86.70
2022-10-23T20:08:39.407Z,86.60
2022-10-23T20:11:07.880Z,86.60
2022-10-23T20:13:35.929Z,86.70
2022-10-23T20:16:04.018Z,86.70
2022-10-23T20:18:32.215Z,86.70
2022-10-23T20:21:02.218Z,86.90
2022-10-23T20:23:30.291Z,86.80
2022-10-23T20:26:06.631Z,86.70
2022-10-23T20:28:34.752Z,86.70
2022-10-23T20:31:06.561Z,86.70
2022-10-23T20:33:34.628Z,86.70
2022-10-23T20:36:07.241Z,87.10
2022-10-23T20:38:42.570Z,86.70
2022-10-23T20:41:12.021Z,86.70
2022-10-23T20:43:40.084Z,86.90
2022-10-23T20:46:08.950Z,87.00
2022-10-23T20:48:37.142Z,87.00
2022-10-23T20:51:05.296Z,87.20
2022-10-23T20:53:33.353Z,86.90
2022-10-23T20:56:07.617Z,86.80
2022-10-23T20:58:37.054Z,86.90
2022-10-23T21:01:05.915Z,87.00
2022-10-23T21:03:34.139Z,87.20
2022-10-23T21:06:05.574Z,86.80
2022-10-23T21:08:33.679Z,86.60
2022-10-23T21:11:01.758Z,86.70
2022-10-23T21:13:32.927Z,86.70
2022-10-23T21:16:02.353Z,86.70
2022-10-23T21:18:45.421Z,86.70
2022-10-23T21:21:14.098Z,86.70
2022-10-23T21:23:42.229Z,86.70
2022-10-23T21:26:10.640Z,86.70
2022-10-23T21:28:40.018Z,86.80
2022-10-23T21:31:12.960Z,86.90
2022-10-23T21:33:41.608Z,87.00
2022-10-23T21:36:18.485Z,86.90
2022-10-23T21:38:46.685Z,87.00
2022-10-23T21:41:15.695Z,87.00
2022-10-23T21:43:43.756Z,87.00
2022-10-23T21:46:14.254Z,87.00
2022-10-23T21:48:42.379Z,86.90
2022-10-23T21:51:14.247Z,87.00
2022-10-23T21:53:42.361Z,87.00
2022-10-23T21:56:11.228Z,87.10
2022-10-23T21:58:45.262Z,87.10
2022-10-23T22:01:17.975Z,87.10
2022-10-23T22:03:46.104Z,87.20
2022-10-23T22:06:16.693Z,87.20
2022-10-23T22:08:44.807Z,87.20
2022-10-23T22:11:13.780Z,87.20
2022-10-23T22:13:41.873Z,87.10
2022-10-23T22:16:10.405Z,86.90
2022-10-23T22:18:39.860Z,86.90
2022-10-23T22:21:09.552Z,86.90
2022-10-23T22:23:37.686Z,86.90
2022-10-23T22:26:06.561Z,87.00
2022-10-23T22:28:34.721Z,87.10
2022-10-23T22:31:02.813Z,87.10
2022-10-23T22:33:31.929Z,87.10
2022-10-23T22:36:04.869Z,87.20
2022-10-23T22:38:38.094Z,87.40
2022-10-23T22:41:06.226Z,87.20
2022-10-23T22:43:34.385Z,87.20
2022-10-23T22:46:06.238Z,87.30
2022-10-23T22:48:34.424Z,87.20
2022-10-23T22:51:03.840Z,87.20
2022-10-23T22:53:32.004Z,86.90
2022-10-23T22:56:00.045Z,87.00
2022-10-23T22:58:28.134Z,87.10
2022-10-23T23:01:02.917Z,87.20
2022-10-23T23:03:31.040Z,87.10
2022-10-23T23:05:59.112Z,87.20
2022-10-23T23:08:28.524Z,87.20
2022-10-23T23:10:56.974Z,87.30
2022-10-23T23:13:25.065Z,87.20
2022-10-23T23:15:56.019Z,87.10
2022-10-23T23:18:24.118Z,87.00
2022-10-23T23:20:52.252Z,87.10
2022-10-23T23:23:20.581Z,87.20
2022-10-23T23:25:50.794Z,87.10
2022-10-23T23:28:19.828Z,87.20
2022-10-23T23:30:48.312Z,87.10
2022-10-23T23:33:16.597Z,87.10
2022-10-23T23:35:45.374Z,87.10
2022-10-23T23:38:22.293Z,87.10
2022-10-23T23:40:52.704Z,87.10
2022-10-23T23:43:20.973Z,87.10
2022-10-23T23:45:49.023Z,87.10
2022-10-23T23:48:17.022Z,87.10
2022-10-23T23:50:45.103Z,87.20
2022-10-23T23:53:13.149Z,87.10
2022-10-23T23:56:05.184Z,87.20
2022-10-23T23:58:34.658Z,87.10
